sensor_id;sensor_type;location;lat;lon;timestamp;pressure;altitude;pressure_sealevel;temperature;humidity
59531;BME280;45349;48.692;8.186;2023-08-20T00:00:04;151329.19;;;21.11;100.00
59531;BME280;45349;48.692;8.186;2023-08-20T00:02:40;151326.69;;;21.10;100.00
59531;BME280;45349;48.692;8.186;2023-08-20T00:05:08;151336.69;;;21.14;100.00
59531;BME280;45349;48.692;8.186;2023-08-20T00:07:36;151335.47;;;21.14;100.00
59531;BME280;45349;48.692;8.186;2023-08-20T00:10:03;151343.00;;;21.17;100.00
59531;BME280;45349;48.692;8.186;2023-08-20T00:12:32;151350.50;;;21.20;100.00
59531;BME280;45349;48.692;8.186;2023-08-20T00:15:04;151352.97;;;21.21;100.00
59531;BME280;45349;48.692;8.186;2023-08-20T00:17:32;151363.00;;;21.25;100.00
59531;BME280;45349;48.692;8.186;2023-08-20T00:20:04;151381.84;;;21.33;100.00
59531;BME280;45349;48.692;8.186;2023-08-20T00:22:36;151375.53;;;21.30;100.00
59531;BME280;45349;48.692;8.186;2023-08-20T00:25:04;151375.53;;;21.30;100.00
59531;BME280;45349;48.692;8.186;2023-08-20T00:27:32;151369.28;;;21.28;100.00
59531;BME280;45349;48.692;8.186;2023-08-20T00:30:03;151363.00;;;21.25;100.00
59531;BME280;45349;48.692;8.186;2023-08-20T00:32:30;151352.97;;;21.21;100.00
59531;BME280;45349;48.692;8.186;2023-08-20T00:35:00;151348.00;;;21.19;100.00
59531;BME280;45349;48.692;8.186;2023-08-20T00:37:28;151356.75;;;21.22;100.00
59531;BME280;45349;48.692;8.186;2023-08-20T00:39:54;151355.47;;;21.22;100.00
59531;BME280;45349;48.692;8.186;2023-08-20T00:42:22;151360.50;;;21.24;100.00
59531;BME280;45349;48.692;8.186;2023-08-20T00:44:52;151369.28;;;21.28;100.00
59531;BME280;45349;48.692;8.186;2023-08-20T00:47:19;151365.50;;;21.26;100.00
59531;BME280;45349;48.692;8.186;2023-08-20T00:49:47;151369.28;;;21.28;100.00
59531;BME280;45349;48.692;8.186;2023-08-20T00:52:16;151360.50;;;21.24;100.00
59531;BME280;45349;48.692;8.186;2023-08-20T00:54:44;151358.00;;;21.23;100.00
59531;BME280;45349;48.692;8.186;2023-08-20T00:57:13;151352.97;;;21.21;100.00
59531;BME280;45349;48.692;8.186;2023-08-20T00:59:41;151340.47;;;21.16;100.00
59531;BME280;45349;48.692;8.186;2023-08-20T01:02:09;151337.97;;;21.15;100.00
59531;BME280;45349;48.692;8.186;2023-08-20T01:04:36;151325.44;;;21.09;100.00
59531;BME280;45349;48.692;8.186;2023-08-20T01:07:11;151314.13;;;21.05;100.00
59531;BME280;45349;48.692;8.186;2023-08-20T01:09:49;151299.09;;;20.99;100.00
59531;BME280;45349;48.692;8.186;2023-08-20T01:12:17;151301.59;;;21.00;100.00
59531;BME280;45349;48.692;8.186;2023-08-20T01:14:44;151287.84;;;20.94;100.00
59531;BME280;45349;48.692;8.186;2023-08-20T01:17:12;151272.78;;;20.88;100.00
59531;BME280;45349;48.692;8.186;2023-08-20T01:19:40;151265.28;;;20.85;100.00
59531;BME280;45349;48.692;8.186;2023-08-20T01:22:26;151267.78;;;20.86;100.00
59531;BME280;45349;48.692;8.186;2023-08-20T01:25:01;151259.00;;;20.82;100.00
59531;BME280;45349;48.692;8.186;2023-08-20T01:27:41;151267.78;;;20.86;100.00
59531;BME280;45349;48.692;8.186;2023-08-20T01:30:12;151255.25;;;20.81;100.00
59531;BME280;45349;48.692;8.186;2023-08-20T01:32:39;151245.19;;;20.76;100.00
59531;BME280;45349;48.692;8.186;2023-08-20T01:35:08;151252.75;;;20.79;100.00
59531;BME280;45349;48.692;8.186;2023-08-20T01:37:37;151264.00;;;20.84;100.00
59531;BME280;45349;48.692;8.186;2023-08-20T01:40:05;151242.69;;;20.75;100.00
59531;BME280;45349;48.692;8.186;2023-08-20T01:42:33;151242.69;;;20.75;100.00
59531;BME280;45349;48.692;8.186;2023-08-20T01:45:03;151223.84;;;20.68;100.00
59531;BME280;45349;48.692;8.186;2023-08-20T01:47:32;151212.59;;;20.63;100.00
59531;BME280;45349;48.692;8.186;2023-08-20T01:50:03;151208.84;;;20.61;100.00
59531;BME280;45349;48.692;8.186;2023-08-20T01:52:30;151198.84;;;20.57;100.00
59531;BME280;45349;48.692;8.186;2023-08-20T01:55:01;151197.56;;;20.57;100.00
59531;BME280;45349;48.692;8.186;2023-08-20T01:57:27;151186.31;;;20.52;100.00
59531;BME280;45349;48.692;8.186;2023-08-20T01:59:54;151190.03;;;20.54;100.00
59531;BME280;45349;48.692;8.186;2023-08-20T02:02:21;151182.53;;;20.50;100.00
59531;BME280;45349;48.692;8.186;2023-08-20T02:04:49;151188.81;;;20.53;100.00
59531;BME280;45349;48.692;8.186;2023-08-20T02:07:15;151176.28;;;20.48;100.00
59531;BME280;45349;48.692;8.186;2023-08-20T02:09:42;151173.78;;;20.47;100.00
59531;BME280;45349;48.692;8.186;2023-08-20T02:12:09;151176.28;;;20.48;100.00
59531;BME280;45349;48.692;8.186;2023-08-20T02:14:35;151171.25;;;20.46;100.00
59531;BME280;45349;48.692;8.186;2023-08-20T02:17:02;151175.00;;;20.47;100.00
59531;BME280;45349;48.692;8.186;2023-08-20T02:19:29;151166.25;;;20.44;100.00
59531;BME280;45349;48.692;8.186;2023-08-20T02:21:57;151162.47;;;20.42;100.00
59531;BME280;45349;48.692;8.186;2023-08-20T02:24:23;151163.75;;;20.43;100.00
59531;BME280;45349;48.692;8.186;2023-08-20T02:26:50;151162.47;;;20.42;100.00
59531;BME280;45349;48.692;8.186;2023-08-20T02:29:16;151153.72;;;20.39;100.00
59531;BME280;45349;48.692;8.186;2023-08-20T02:31:43;151163.75;;;20.43;100.00
59531;BME280;45349;48.692;8.186;2023-08-20T02:34:10;151148.72;;;20.37;100.00
59531;BME280;45349;48.692;8.186;2023-08-20T02:36:38;151134.91;;;20.31;100.00
59531;BME280;45349;48.692;8.186;2023-08-20T02:39:06;151124.88;;;20.27;100.00
59531;BME280;45349;48.692;8.186;2023-08-20T02:41:34;151123.66;;;20.26;100.00
59531;BME280;45349;48.692;8.186;2023-08-20T02:44:01;151123.66;;;20.26;100.00
59531;BME280;45349;48.692;8.186;2023-08-20T02:46:28;151127.38;;;20.28;100.00
59531;BME280;45349;48.692;8.186;2023-08-20T02:48:56;151117.38;;;20.24;100.00
59531;BME280;45349;48.692;8.186;2023-08-20T02:51:23;151106.09;;;20.19;100.00
59531;BME280;45349;48.692;8.186;2023-08-20T02:53:49;151111.13;;;20.21;100.00
59531;BME280;45349;48.692;8.186;2023-08-20T02:56:17;151104.84;;;20.18;100.00
59531;BME280;45349;48.692;8.186;2023-08-20T02:58:44;151112.34;;;20.21;100.00
59531;BME280;45349;48.692;8.186;2023-08-20T03:01:19;151099.81;;;20.16;100.00
59531;BME280;45349;48.692;8.186;2023-08-20T03:03:45;151104.84;;;20.18;100.00
59531;BME280;45349;48.692;8.186;2023-08-20T03:06:13;151104.84;;;20.18;100.00
59531;BME280;45349;48.692;8.186;2023-08-20T03:08:40;151098.59;;;20.16;100.00
59531;BME280;45349;48.692;8.186;2023-08-20T03:11:06;151092.34;;;20.13;100.00
59531;BME280;45349;48.692;8.186;2023-08-20T03:13:34;151087.34;;;20.11;100.00
59531;BME280;45349;48.692;8.186;2023-08-20T03:16:01;151108.63;;;20.20;100.00
59531;BME280;45349;48.692;8.186;2023-08-20T03:18:28;151117.38;;;20.24;100.00
59531;BME280;45349;48.692;8.186;2023-08-20T03:20:55;151112.34;;;20.21;100.00
59531;BME280;45349;48.692;8.186;2023-08-20T03:23:23;151112.34;;;20.21;100.00
59531;BME280;45349;48.692;8.186;2023-08-20T03:25:50;151108.63;;;20.20;100.00
59531;BME280;45349;48.692;8.186;2023-08-20T03:28:17;151101.09;;;20.17;100.00
59531;BME280;45349;48.692;8.186;2023-08-20T03:33:26;151107.34;;;20.19;100.00
59531;BME280;45349;48.692;8.186;2023-08-20T03:35:53;151102.31;;;20.17;100.00
59531;BME280;45349;48.692;8.186;2023-08-20T03:38:19;151118.63;;;20.24;100.00
59531;BME280;45349;48.692;8.186;2023-08-20T03:40:47;151127.38;;;20.28;100.00
59531;BME280;45349;48.692;8.186;2023-08-20T03:43:14;151131.16;;;20.29;100.00
59531;BME280;45349;48.692;8.186;2023-08-20T03:45:41;151114.84;;;20.23;100.00
59531;BME280;45349;48.692;8.186;2023-08-20T03:48:09;151102.31;;;20.17;100.00
59531;BME280;45349;48.692;8.186;2023-08-20T03:50:36;151109.84;;;20.20;100.00
59531;BME280;45349;48.692;8.186;2023-08-20T03:53:03;151102.31;;;20.17;100.00
59531;BME280;45349;48.692;8.186;2023-08-20T03:55:30;151096.09;;;20.15;100.00
59531;BME280;45349;48.692;8.186;2023-08-20T03:57:56;151084.84;;;20.10;100.00
59531;BME280;45349;48.692;8.186;2023-08-20T04:00:23;151079.81;;;20.08;100.00
59531;BME280;45349;48.692;8.186;2023-08-20T04:02:49;151051.00;;;19.96;100.00
59531;BME280;45349;48.692;8.186;2023-08-20T04:05:17;151023.38;;;19.85;100.00
59531;BME280;45349;48.692;8.186;2023-08-20T04:07:44;151019.66;;;19.83;100.00
59531;BME280;45349;48.692;8.186;2023-08-20T04:10:11;151004.63;;;19.77;100.00
59531;BME280;45349;48.692;8.186;2023-08-20T04:12:37;151000.84;;;19.75;100.00
59531;BME280;45349;48.692;8.186;2023-08-20T04:15:04;151002.09;;;19.76;100.00
59531;BME280;45349;48.692;8.186;2023-08-20T04:17:32;150994.59;;;19.73;100.00
59531;BME280;45349;48.692;8.186;2023-08-20T04:20:03;150994.59;;;19.73;100.00
59531;BME280;45349;48.692;8.186;2023-08-20T04:22:34;150994.59;;;19.73;100.00
59531;BME280;45349;48.692;8.186;2023-08-20T04:25:03;150999.59;;;19.75;100.00
59531;BME280;45349;48.692;8.186;2023-08-20T04:27:29;151003.34;;;19.76;100.00
59531;BME280;45349;48.692;8.186;2023-08-20T04:30:00;151015.88;;;19.82;100.00
59531;BME280;45349;48.692;8.186;2023-08-20T04:32:27;151014.63;;;19.81;100.00
59531;BME280;45349;48.692;8.186;2023-08-20T04:34:54;151010.84;;;19.80;100.00
59531;BME280;45349;48.692;8.186;2023-08-20T04:37:22;151022.16;;;19.84;100.00
59531;BME280;45349;48.692;8.186;2023-08-20T04:39:51;151038.47;;;19.91;100.00
59531;BME280;45349;48.692;8.186;2023-08-20T04:42:18;151044.75;;;19.94;100.00
59531;BME280;45349;48.692;8.186;2023-08-20T04:44:45;151059.78;;;20.00;100.00
59531;BME280;45349;48.692;8.186;2023-08-20T04:47:11;151073.53;;;20.05;100.00
59531;BME280;45349;48.692;8.186;2023-08-20T04:49:38;151089.84;;;20.12;100.00
59531;BME280;45349;48.692;8.186;2023-08-20T04:52:05;151101.09;;;20.17;100.00
59531;BME280;45349;48.692;8.186;2023-08-20T04:54:33;151117.38;;;20.24;100.00
59531;BME280;45349;48.692;8.186;2023-08-20T04:57:03;151134.91;;;20.31;100.00
59531;BME280;45349;48.692;8.186;2023-08-20T04:59:29;151148.72;;;20.37;100.00
59531;BME280;45349;48.692;8.186;2023-08-20T05:02:22;151164.97;;;20.43;100.00
59531;BME280;45349;48.692;8.186;2023-08-20T05:04:53;151183.78;;;20.51;100.00
59531;BME280;45349;48.692;8.186;2023-08-20T05:07:20;151213.88;;;20.63;100.00
59531;BME280;45349;48.692;8.186;2023-08-20T05:09:46;151232.66;;;20.71;100.00
59531;BME280;45349;48.692;8.186;2023-08-20T05:12:14;151242.69;;;20.75;100.00
59531;BME280;45349;48.692;8.186;2023-08-20T05:14:41;151257.75;;;20.82;100.00
59531;BME280;45349;48.692;8.186;2023-08-20T05:17:07;151274.03;;;20.88;100.00
59531;BME280;45349;48.692;8.186;2023-08-20T05:19:34;151282.81;;;20.92;100.00
59531;BME280;45349;48.692;8.186;2023-08-20T05:22:01;151309.13;;;21.03;100.00
59531;BME280;45349;48.692;8.186;2023-08-20T05:24:32;151336.69;;;21.14;100.00
59531;BME280;45349;48.692;8.186;2023-08-20T05:27:06;151363.00;;;21.25;100.00
59531;BME280;45349;48.692;8.186;2023-08-20T05:29:35;151386.84;;;21.35;100.00
59531;BME280;45349;48.692;8.186;2023-08-20T05:32:02;151403.13;;;21.42;100.00
59531;BME280;45349;48.692;8.186;2023-08-20T05:34:28;151435.72;;;21.55;100.00
59531;BME280;45349;48.692;8.186;2023-08-20T05:36:55;151477.16;;;21.72;100.00
59531;BME280;45349;48.692;8.186;2023-08-20T05:39:22;151495.97;;;21.80;100.00
59531;BME280;45349;48.692;8.186;2023-08-20T05:41:51;151521.03;;;21.90;100.00
59531;BME280;45349;48.692;8.186;2023-08-20T05:44:18;151517.25;;;21.89;100.00
59531;BME280;45349;48.692;8.186;2023-08-20T05:46:46;151479.63;;;21.73;100.00
59531;BME280;45349;48.692;8.186;2023-08-20T05:49:14;151499.69;;;21.81;100.00
59531;BME280;45349;48.692;8.186;2023-08-20T05:51:42;151518.53;;;21.89;100.00
59531;BME280;45349;48.692;8.186;2023-08-20T05:54:09;151527.28;;;21.93;100.00
59531;BME280;45349;48.692;8.186;2023-08-20T05:56:36;151522.25;;;21.91;100.00
59531;BME280;45349;48.692;8.186;2023-08-20T05:59:03;151518.53;;;21.89;100.00
59531;BME280;45349;48.692;8.186;2023-08-20T06:01:31;151537.31;;;21.97;100.00
59531;BME280;45349;48.692;8.186;2023-08-20T06:04:00;151558.66;;;22.06;100.00
59531;BME280;45349;48.692;8.186;2023-08-20T06:06:27;151569.91;;;22.10;100.00
59531;BME280;45349;48.692;8.186;2023-08-20T06:08:54;151578.72;;;22.14;100.00
59531;BME280;45349;48.692;8.186;2023-08-20T06:11:21;151596.28;;;22.21;100.00
59531;BME280;45349;48.692;8.186;2023-08-20T06:13:47;151620.09;;;22.31;100.00
59531;BME280;45349;48.692;8.186;2023-08-20T06:16:14;151633.88;;;22.37;100.00
59531;BME280;45349;48.692;8.186;2023-08-20T06:18:40;151635.16;;;22.37;100.00
59531;BME280;45349;48.692;8.186;2023-08-20T06:21:08;151638.88;;;22.39;100.00
59531;BME280;45349;48.692;8.186;2023-08-20T06:23:35;151640.16;;;22.39;100.00
59531;BME280;45349;48.692;8.186;2023-08-20T06:26:02;151648.91;;;22.43;100.00
59531;BME280;45349;48.692;8.186;2023-08-20T06:28:28;151648.91;;;22.43;100.00
59531;BME280;45349;48.692;8.186;2023-08-20T06:30:56;151666.53;;;22.50;100.00
59531;BME280;45349;48.692;8.186;2023-08-20T06:33:22;151679.06;;;22.55;100.00
59531;BME280;45349;48.692;8.186;2023-08-20T06:35:49;151691.63;;;22.61;100.00
59531;BME280;45349;48.692;8.186;2023-08-20T06:38:17;151684.09;;;22.58;100.00
59531;BME280;45349;48.692;8.186;2023-08-20T06:40:43;151692.91;;;22.61;100.00
59531;BME280;45349;48.692;8.186;2023-08-20T06:43:10;151697.91;;;22.63;100.00
59531;BME280;45349;48.692;8.186;2023-08-20T06:45:36;151705.44;;;22.66;100.00
59531;BME280;45349;48.692;8.186;2023-08-20T06:48:03;151705.44;;;22.66;100.00
59531;BME280;45349;48.692;8.186;2023-08-20T06:50:30;151689.09;;;22.60;100.00
59531;BME280;45349;48.692;8.186;2023-08-20T06:52:57;151696.63;;;22.63;100.00
59531;BME280;45349;48.692;8.186;2023-08-20T06:55:25;151739.28;;;22.80;100.00
59531;BME280;45349;48.692;8.186;2023-08-20T06:57:52;151756.84;;;22.88;100.00
59531;BME280;45349;48.692;8.186;2023-08-20T07:00:18;151763.09;;;22.90;100.00
59531;BME280;45349;48.692;8.186;2023-08-20T07:02:45;151789.47;;;23.01;100.00
59531;BME280;45349;48.692;8.186;2023-08-20T07:05:12;151822.09;;;23.14;100.00
59531;BME280;45349;48.692;8.186;2023-08-20T07:07:40;151845.97;;;23.24;100.00
59531;BME280;45349;48.692;8.186;2023-08-20T07:10:07;151863.53;;;23.32;100.00
59531;BME280;45349;48.692;8.186;2023-08-20T07:12:35;151882.34;;;23.39;100.00
59531;BME280;45349;48.692;8.186;2023-08-20T07:15:03;151877.31;;;23.37;100.00
59531;BME280;45349;48.692;8.186;2023-08-20T07:17:30;151902.44;;;23.48;100.00
59531;BME280;45349;48.692;8.186;2023-08-20T07:19:59;151914.97;;;23.53;100.00
59531;BME280;45349;48.692;8.186;2023-08-20T07:22:26;151904.94;;;23.49;100.00
59531;BME280;45349;48.692;8.186;2023-08-20T07:24:53;151904.94;;;23.49;100.00
59531;BME280;45349;48.692;8.186;2023-08-20T07:27:20;151911.25;;;23.51;100.00
59531;BME280;45349;48.692;8.186;2023-08-20T07:29:48;151907.44;;;23.50;100.00
59531;BME280;45349;48.692;8.186;2023-08-20T07:32:14;151927.53;;;23.58;100.00
59531;BME280;45349;48.692;8.186;2023-08-20T07:34:41;151930.03;;;23.59;100.00
59531;BME280;45349;48.692;8.186;2023-08-20T07:37:07;151940.09;;;23.63;100.00
59531;BME280;45349;48.692;8.186;2023-08-20T07:39:34;151975.22;;;23.78;100.00
59531;BME280;45349;48.692;8.186;2023-08-20T07:42:01;151992.81;;;23.85;100.00
59531;BME280;45349;48.692;8.186;2023-08-20T07:44:30;152010.38;;;23.92;100.00
59531;BME280;45349;48.692;8.186;2023-08-20T07:46:58;152000.34;;;23.88;100.00
59531;BME280;45349;48.692;8.186;2023-08-20T07:49:25;152020.41;;;23.96;100.00
59531;BME280;45349;48.692;8.186;2023-08-20T07:51:51;152049.31;;;24.08;100.00
59531;BME280;45349;48.692;8.186;2023-08-20T07:54:19;152070.69;;;24.17;100.00
59531;BME280;45349;48.692;8.186;2023-08-20T07:56:49;152031.75;;;24.01;100.00
59531;BME280;45349;48.692;8.186;2023-08-20T07:59:15;152034.25;;;24.02;100.00
59531;BME280;45349;48.692;8.186;2023-08-20T08:01:42;152056.84;;;24.11;100.00
59531;BME280;45349;48.692;8.186;2023-08-20T08:04:10;152075.72;;;24.19;100.00
59531;BME280;45349;48.692;8.186;2023-08-20T08:06:36;152093.28;;;24.26;100.00
59531;BME280;45349;48.692;8.186;2023-08-20T08:09:19;152060.66;;;24.13;100.00
59531;BME280;45349;48.692;8.186;2023-08-20T08:11:46;152066.91;;;24.15;100.00
59531;BME280;45349;48.692;8.186;2023-08-20T08:14:13;152114.59;;;24.35;100.00
59531;BME280;45349;48.692;8.186;2023-08-20T08:16:40;152142.22;;;24.46;100.00
59531;BME280;45349;48.692;8.186;2023-08-20T08:19:06;152112.09;;;24.34;100.00
59531;BME280;45349;48.692;8.186;2023-08-20T08:21:35;152163.56;;;24.55;100.00
59531;BME280;45349;48.692;8.186;2023-08-20T08:24:01;152184.94;;;24.64;100.00
59531;BME280;45349;48.692;8.186;2023-08-20T08:26:29;152184.94;;;24.64;100.00
59531;BME280;45349;48.692;8.186;2023-08-20T08:28:56;152167.34;;;24.57;100.00
59531;BME280;45349;48.692;8.186;2023-08-20T08:31:23;152210.09;;;24.74;100.00
59531;BME280;45349;48.692;8.186;2023-08-20T08:33:50;152232.72;;;24.84;99.92
59531;BME280;45349;48.692;8.186;2023-08-20T08:36:16;152200.00;;;24.70;99.52
59531;BME280;45349;48.692;8.186;2023-08-20T08:38:44;152206.31;;;24.73;99.91
59531;BME280;45349;48.692;8.186;2023-08-20T08:41:12;152249.00;;;24.90;98.87
59531;BME280;45349;48.692;8.186;2023-08-20T08:43:39;152262.81;;;24.96;98.78
59531;BME280;45349;48.692;8.186;2023-08-20T08:46:07;152232.72;;;24.84;100.00
59531;BME280;45349;48.692;8.186;2023-08-20T08:48:34;152197.50;;;24.69;100.00
59531;BME280;45349;48.692;8.186;2023-08-20T08:51:01;152215.13;;;24.76;100.00
59531;BME280;45349;48.692;8.186;2023-08-20T08:53:30;152241.47;;;24.87;100.00
59531;BME280;45349;48.692;8.186;2023-08-20T08:56:00;152246.50;;;24.89;100.00
59531;BME280;45349;48.692;8.186;2023-08-20T08:58:28;152275.38;;;25.01;99.16
59531;BME280;45349;48.692;8.186;2023-08-20T09:00:55;152314.31;;;25.17;99.38
59531;BME280;45349;48.692;8.186;2023-08-20T09:03:21;152325.63;;;25.22;97.96
59531;BME280;45349;48.692;8.186;2023-08-20T09:05:50;152314.31;;;25.17;96.94
59531;BME280;45349;48.692;8.186;2023-08-20T09:08:20;152372.13;;;25.41;95.80
59531;BME280;45349;48.692;8.186;2023-08-20T09:10:50;152347.00;;;25.31;96.89
59531;BME280;45349;48.692;8.186;2023-08-20T09:13:22;152359.56;;;25.36;94.94
59531;BME280;45349;48.692;8.186;2023-08-20T09:15:50;152428.69;;;25.64;94.39
59531;BME280;45349;48.692;8.186;2023-08-20T09:18:17;152426.16;;;25.63;94.52
59531;BME280;45349;48.692;8.186;2023-08-20T09:20:43;152482.69;;;25.87;90.29
59531;BME280;45349;48.692;8.186;2023-08-20T09:23:11;152491.50;;;25.90;88.35
59531;BME280;45349;48.692;8.186;2023-08-20T09:25:38;152467.63;;;25.81;88.24
59531;BME280;45349;48.692;8.186;2023-08-20T09:28:05;152489.00;;;25.89;87.99
59531;BME280;45349;48.692;8.186;2023-08-20T09:30:33;152510.34;;;25.98;87.97
59531;BME280;45349;48.692;8.186;2023-08-20T09:33:04;152526.66;;;26.05;86.91
59531;BME280;45349;48.692;8.186;2023-08-20T09:35:31;152540.50;;;26.11;88.36
59531;BME280;45349;48.692;8.186;2023-08-20T09:38:01;152604.63;;;26.37;88.38
59531;BME280;45349;48.692;8.186;2023-08-20T09:40:28;152624.72;;;26.45;86.50
59531;BME280;45349;48.692;8.186;2023-08-20T09:42:56;152659.94;;;26.60;88.99
59531;BME280;45349;48.692;8.186;2023-08-20T09:45:24;152666.19;;;26.62;85.71
59531;BME280;45349;48.692;8.186;2023-08-20T09:47:55;152730.38;;;26.89;85.11
59531;BME280;45349;48.692;8.186;2023-08-20T09:50:22;152759.28;;;27.01;84.88
59531;BME280;45349;48.692;8.186;2023-08-20T09:52:55;152819.63;;;27.25;82.05
59531;BME280;45349;48.692;8.186;2023-08-20T09:55:28;152852.31;;;27.39;81.97
59531;BME280;45349;48.692;8.186;2023-08-20T09:57:56;152729.09;;;26.88;85.14
59531;BME280;45349;48.692;8.186;2023-08-20T10:00:23;152712.72;;;26.81;85.74
59531;BME280;45349;48.692;8.186;2023-08-20T10:02:52;152727.88;;;26.88;85.28
59531;BME280;45349;48.692;8.186;2023-08-20T10:05:19;152774.34;;;27.07;84.74
59531;BME280;45349;48.692;8.186;2023-08-20T10:07:47;152807.06;;;27.20;83.11
59531;BME280;45349;48.692;8.186;2023-08-20T10:10:15;152789.44;;;27.13;84.75
59531;BME280;45349;48.692;8.186;2023-08-20T10:12:42;152793.19;;;27.15;83.52
59531;BME280;45349;48.692;8.186;2023-08-20T10:15:11;152785.66;;;27.11;84.09
59531;BME280;45349;48.692;8.186;2023-08-20T10:17:40;152839.75;;;27.34;82.75
59531;BME280;45349;48.692;8.186;2023-08-20T10:20:09;152869.94;;;27.46;83.60
59531;BME280;45349;48.692;8.186;2023-08-20T10:22:37;152925.28;;;27.69;82.23
59531;BME280;45349;48.692;8.186;2023-08-20T10:25:06;152900.13;;;27.59;81.05
59531;BME280;45349;48.692;8.186;2023-08-20T10:27:34;152950.41;;;27.79;81.67
59531;BME280;45349;48.692;8.186;2023-08-20T10:30:07;152906.44;;;27.61;82.44
59531;BME280;45349;48.692;8.186;2023-08-20T10:32:47;152858.59;;;27.41;81.58
59531;BME280;45349;48.692;8.186;2023-08-20T10:35:18;152930.28;;;27.71;82.66
59531;BME280;45349;48.692;8.186;2023-08-20T10:38:05;152989.44;;;27.95;82.66
59531;BME280;45349;48.692;8.186;2023-08-20T10:41:03;153041.03;;;28.17;77.71
59531;BME280;45349;48.692;8.186;2023-08-20T10:43:32;153029.66;;;28.12;79.72
59531;BME280;45349;48.692;8.186;2023-08-20T10:46:04;153068.72;;;28.28;77.80
59531;BME280;45349;48.692;8.186;2023-08-20T10:48:31;153119.03;;;28.49;77.58
59531;BME280;45349;48.692;8.186;2023-08-20T10:51:09;153115.25;;;28.47;76.85
59531;BME280;45349;48.692;8.186;2023-08-20T10:53:36;153166.81;;;28.68;76.45
59531;BME280;45349;48.692;8.186;2023-08-20T10:56:10;153192.03;;;28.79;76.46
59531;BME280;45349;48.692;8.186;2023-08-20T10:58:40;153215.97;;;28.89;77.01
59531;BME280;45349;48.692;8.186;2023-08-20T11:01:14;153213.44;;;28.87;70.96
59531;BME280;45349;48.692;8.186;2023-08-20T11:03:42;153238.59;;;28.98;73.33
59531;BME280;45349;48.692;8.186;2023-08-20T11:06:10;153293.94;;;29.21;72.04
59531;BME280;45349;48.692;8.186;2023-08-20T11:08:38;153310.31;;;29.27;71.14
59531;BME280;45349;48.692;8.186;2023-08-20T11:11:05;153355.69;;;29.46;69.43
59531;BME280;45349;48.692;8.186;2023-08-20T11:13:32;153389.66;;;29.60;68.89
59531;BME280;45349;48.692;8.186;2023-08-20T11:16:01;153433.69;;;29.78;66.43
59531;BME280;45349;48.692;8.186;2023-08-20T11:18:28;153452.59;;;29.86;67.46
59531;BME280;45349;48.692;8.186;2023-08-20T11:20:54;153451.31;;;29.85;69.04
59531;BME280;45349;48.692;8.186;2023-08-20T11:23:23;153387.13;;;29.59;68.82
59531;BME280;45349;48.692;8.186;2023-08-20T11:25:50;153350.66;;;29.44;71.35
59531;BME280;45349;48.692;8.186;2023-08-20T11:28:17;153343.09;;;29.41;73.31
59531;BME280;45349;48.692;8.186;2023-08-20T11:30:45;153401.00;;;29.65;73.66
59531;BME280;45349;48.692;8.186;2023-08-20T11:33:12;153373.31;;;29.53;70.57
59531;BME280;45349;48.692;8.186;2023-08-20T11:35:39;153401.00;;;29.65;70.97
59531;BME280;45349;48.692;8.186;2023-08-20T11:38:06;153411.03;;;29.69;70.32
59531;BME280;45349;48.692;8.186;2023-08-20T11:40:34;153343.09;;;29.41;70.49
59531;BME280;45349;48.692;8.186;2023-08-20T11:43:00;153389.66;;;29.60;71.03
59531;BME280;45349;48.692;8.186;2023-08-20T11:45:27;153461.38;;;29.89;68.92
59531;BME280;45349;48.692;8.186;2023-08-20T11:47:56;153509.28;;;30.09;68.55
59531;BME280;45349;48.692;8.186;2023-08-20T11:50:23;153495.44;;;30.03;67.89
59531;BME280;45349;48.692;8.186;2023-08-20T11:52:51;153457.63;;;29.88;70.03
59531;BME280;45349;48.692;8.186;2023-08-20T11:55:21;153457.63;;;29.88;70.42
59531;BME280;45349;48.692;8.186;2023-08-20T11:57:51;153506.75;;;30.08;68.05
59531;BME280;45349;48.692;8.186;2023-08-20T12:00:24;153508.03;;;30.09;67.98
59531;BME280;45349;48.692;8.186;2023-08-20T12:02:52;153530.72;;;30.18;69.82
59531;BME280;45349;48.692;8.186;2023-08-20T12:05:20;153559.63;;;30.30;69.35
59531;BME280;45349;48.692;8.186;2023-08-20T12:07:54;153579.78;;;30.38;67.63
59531;BME280;45349;48.692;8.186;2023-08-20T12:10:22;153544.53;;;30.24;67.16
59531;BME280;45349;48.692;8.186;2023-08-20T12:12:51;153554.59;;;30.28;68.63
59531;BME280;45349;48.692;8.186;2023-08-20T12:15:18;153583.53;;;30.40;69.61
59531;BME280;45349;48.692;8.186;2023-08-20T12:17:58;153650.34;;;30.67;67.32
59531;BME280;45349;48.692;8.186;2023-08-20T12:20:27;153633.97;;;30.60;65.76
59531;BME280;45349;48.692;8.186;2023-08-20T12:22:54;153611.25;;;30.51;65.74
59531;BME280;45349;48.692;8.186;2023-08-20T12:25:20;153606.22;;;30.49;65.91
59531;BME280;45349;48.692;8.186;2023-08-20T12:27:47;153649.06;;;30.67;63.60
59531;BME280;45349;48.692;8.186;2023-08-20T12:30:15;153639.00;;;30.62;62.90
59531;BME280;45349;48.692;8.186;2023-08-20T12:32:42;153592.38;;;30.43;65.24
59531;BME280;45349;48.692;8.186;2023-08-20T12:35:08;153582.31;;;30.39;64.11
59531;BME280;45349;48.692;8.186;2023-08-20T12:37:35;153582.31;;;30.39;65.46
59531;BME280;45349;48.692;8.186;2023-08-20T12:40:03;153615.06;;;30.53;64.74
59531;BME280;45349;48.692;8.186;2023-08-20T12:42:32;153661.66;;;30.72;62.56
59531;BME280;45349;48.692;8.186;2023-08-20T12:45:04;153689.38;;;30.83;62.88
59531;BME280;45349;48.692;8.186;2023-08-20T12:47:32;153684.34;;;30.81;62.13
59531;BME280;45349;48.692;8.186;2023-08-20T12:50:03;153730.94;;;31.00;61.95